sensor_id;sensor_type;location;lat;lon;timestamp;P1;durP1;ratioP1;P2;durP2;ratioP2
28009;SDS011;15334;49.494;8.410;2023-03-22T00:09:45;11.82;;;4.88;;
28009;SDS011;15334;49.494;8.410;2023-03-22T00:16:51;13.07;;;5.65;;
28009;SDS011;15334;49.494;8.410;2023-03-22T00:20:37;9.95;;;5.13;;
28009;SDS011;15334;49.494;8.410;2023-03-22T00:28:12;10.32;;;5.28;;
28009;SDS011;15334;49.494;8.410;2023-03-22T00:31:06;9.40;;;5.03;;
28009;SDS011;15334;49.494;8.410;2023-03-22T00:34:14;15.20;;;4.70;;
28009;SDS011;15334;49.494;8.410;2023-03-22T00:37:00;7.78;;;4.25;;
28009;SDS011;15334;49.494;8.410;2023-03-22T00:39:30;8.52;;;4.82;;
28009;SDS011;15334;49.494;8.410;2023-03-22T00:41:58;9.75;;;4.63;;
28009;SDS011;15334;49.494;8.410;2023-03-22T00:44:26;8.27;;;4.57;;
28009;SDS011;15334;49.494;8.410;2023-03-22T00:46:54;11.23;;;4.40;;
28009;SDS011;15334;49.494;8.410;2023-03-22T00:49:25;8.18;;;4.63;;
28009;SDS011;15334;49.494;8.410;2023-03-22T00:51:53;8.95;;;4.45;;
28009;SDS011;15334;49.494;8.410;2023-03-22T00:54:23;12.73;;;4.68;;
28009;SDS011;15334;49.494;8.410;2023-03-22T00:56:52;9.38;;;4.72;;
28009;SDS011;15334;49.494;8.410;2023-03-22T00:59:21;7.72;;;4.18;;
28009;SDS011;15334;49.494;8.410;2023-03-22T01:01:49;10.60;;;5.40;;
28009;SDS011;15334;49.494;8.410;2023-03-22T01:04:17;11.98;;;6.40;;
28009;SDS011;15334;49.494;8.410;2023-03-22T01:06:54;11.98;;;5.20;;
28009;SDS011;15334;49.494;8.410;2023-03-22T01:09:27;11.68;;;5.20;;
28009;SDS011;15334;49.494;8.410;2023-03-22T01:11:57;14.20;;;5.43;;
28009;SDS011;15334;49.494;8.410;2023-03-22T01:14:27;8.43;;;5.05;;
28009;SDS011;15334;49.494;8.410;2023-03-22T01:16:56;14.05;;;5.47;;
28009;SDS011;15334;49.494;8.410;2023-03-22T01:19:25;12.43;;;5.13;;
28009;SDS011;15334;49.494;8.410;2023-03-22T01:21:53;10.13;;;5.47;;
28009;SDS011;15334;49.494;8.410;2023-03-22T01:24:24;13.55;;;5.65;;
28009;SDS011;15334;49.494;8.410;2023-03-22T01:26:54;14.10;;;7.30;;
28009;SDS011;15334;49.494;8.410;2023-03-22T01:29:24;12.07;;;6.07;;
28009;SDS011;15334;49.494;8.410;2023-03-22T01:31:52;13.93;;;7.03;;
28009;SDS011;15334;49.494;8.410;2023-03-22T01:34:20;16.92;;;8.00;;
28009;SDS011;15334;49.494;8.410;2023-03-22T01:36:48;21.83;;;7.95;;
28009;SDS011;15334;49.494;8.410;2023-03-22T01:39:16;18.13;;;8.50;;
28009;SDS011;15334;49.494;8.410;2023-03-22T01:41:44;16.73;;;7.68;;
28009;SDS011;15334;49.494;8.410;2023-03-22T01:44:13;16.63;;;8.25;;
28009;SDS011;15334;49.494;8.410;2023-03-22T01:46:43;16.70;;;8.10;;
28009;SDS011;15334;49.494;8.410;2023-03-22T01:49:13;13.57;;;7.43;;
28009;SDS011;15334;49.494;8.410;2023-03-22T01:51:45;13.53;;;6.67;;
28009;SDS011;15334;49.494;8.410;2023-03-22T01:54:15;11.95;;;5.85;;
28009;SDS011;15334;49.494;8.410;2023-03-22T01:56:48;12.13;;;5.55;;
28009;SDS011;15334;49.494;8.410;2023-03-22T01:59:17;17.73;;;6.20;;
28009;SDS011;15334;49.494;8.410;2023-03-22T02:01:47;12.52;;;6.15;;
28009;SDS011;15334;49.494;8.410;2023-03-22T02:04:16;12.93;;;5.35;;
28009;SDS011;15334;49.494;8.410;2023-03-22T02:06:46;9.68;;;4.72;;
28009;SDS011;15334;49.494;8.410;2023-03-22T02:09:16;9.52;;;4.80;;
28009;SDS011;15334;49.494;8.410;2023-03-22T02:11:48;8.18;;;4.88;;
28009;SDS011;15334;49.494;8.410;2023-03-22T02:14:23;8.95;;;5.03;;
28009;SDS011;15334;49.494;8.410;2023-03-22T02:17:09;8.45;;;4.30;;
28009;SDS011;15334;49.494;8.410;2023-03-22T02:22:50;8.48;;;4.25;;
28009;SDS011;15334;49.494;8.410;2023-03-22T02:28:54;8.27;;;4.78;;
28009;SDS011;15334;49.494;8.410;2023-03-22T02:31:32;7.70;;;4.53;;
28009;SDS011;15334;49.494;8.410;2023-03-22T02:34:24;7.25;;;4.10;;
28009;SDS011;15334;49.494;8.410;2023-03-22T02:37:40;8.40;;;4.28;;
28009;SDS011;15334;49.494;8.410;2023-03-22T02:40:21;8.73;;;4.95;;
28009;SDS011;15334;49.494;8.410;2023-03-22T02:42:55;7.22;;;4.35;;
28009;SDS011;15334;49.494;8.410;2023-03-22T02:45:29;8.30;;;4.65;;
28009;SDS011;15334;49.494;8.410;2023-03-22T02:48:01;9.88;;;3.55;;
28009;SDS011;15334;49.494;8.410;2023-03-22T02:50:36;7.28;;;4.32;;
28009;SDS011;15334;49.494;8.410;2023-03-22T02:53:08;7.60;;;4.25;;
28009;SDS011;15334;49.494;8.410;2023-03-22T02:55:45;7.03;;;4.38;;
28009;SDS011;15334;49.494;8.410;2023-03-22T02:58:18;8.60;;;4.57;;
28009;SDS011;15334;49.494;8.410;2023-03-22T03:00:49;8.25;;;4.47;;
28009;SDS011;15334;49.494;8.410;2023-03-22T03:03:27;6.90;;;3.80;;
28009;SDS011;15334;49.494;8.410;2023-03-22T03:05:58;6.07;;;3.67;;
28009;SDS011;15334;49.494;8.410;2023-03-22T03:08:30;8.15;;;3.97;;
28009;SDS011;15334;49.494;8.410;2023-03-22T03:11:00;7.25;;;3.90;;
28009;SDS011;15334;49.494;8.410;2023-03-22T03:13:31;6.90;;;3.55;;
28009;SDS011;15334;49.494;8.410;2023-03-22T03:15:59;7.75;;;3.63;;
28009;SDS011;15334;49.494;8.410;2023-03-22T03:18:32;5.75;;;3.47;;
28009;SDS011;15334;49.494;8.410;2023-03-22T03:21:08;9.27;;;4.20;;
28009;SDS011;15334;49.494;8.410;2023-03-22T03:23:46;6.80;;;3.35;;
28009;SDS011;15334;49.494;8.410;2023-03-22T03:26:22;6.70;;;3.78;;
28009;SDS011;15334;49.494;8.410;2023-03-22T03:29:00;13.40;;;4.25;;
28009;SDS011;15334;49.494;8.410;2023-03-22T03:31:32;7.93;;;3.67;;
28009;SDS011;15334;49.494;8.410;2023-03-22T03:34:08;6.57;;;3.55;;
28009;SDS011;15334;49.494;8.410;2023-03-22T03:36:43;7.72;;;3.92;;
28009;SDS011;15334;49.494;8.410;2023-03-22T03:39:17;10.85;;;4.43;;
28009;SDS011;15334;49.494;8.410;2023-03-22T03:41:48;8.20;;;4.13;;
28009;SDS011;15334;49.494;8.410;2023-03-22T03:44:19;7.28;;;3.97;;
28009;SDS011;15334;49.494;8.410;2023-03-22T03:46:48;8.13;;;3.92;;
28009;SDS011;15334;49.494;8.410;2023-03-22T03:49:18;7.20;;;3.80;;
28009;SDS011;15334;49.494;8.410;2023-03-22T03:51:50;10.10;;;4.32;;
28009;SDS011;15334;49.494;8.410;2023-03-22T03:54:19;11.35;;;5.45;;
28009;SDS011;15334;49.494;8.410;2023-03-22T03:56:54;12.18;;;5.82;;
28009;SDS011;15334;49.494;8.410;2023-03-22T03:59:23;9.80;;;4.38;;
28009;SDS011;15334;49.494;8.410;2023-03-22T04:01:51;7.88;;;4.53;;
28009;SDS011;15334;49.494;8.410;2023-03-22T04:04:20;13.43;;;5.10;;
28009;SDS011;15334;49.494;8.410;2023-03-22T04:06:52;12.23;;;5.32;;
28009;SDS011;15334;49.494;8.410;2023-03-22T04:09:22;9.30;;;4.78;;
28009;SDS011;15334;49.494;8.410;2023-03-22T04:11:50;9.60;;;5.05;;
28009;SDS011;15334;49.494;8.410;2023-03-22T04:14:19;11.07;;;5.80;;
28009;SDS011;15334;49.494;8.410;2023-03-22T04:16:48;9.07;;;5.15;;
28009;SDS011;15334;49.494;8.410;2023-03-22T04:19:17;9.93;;;5.15;;
28009;SDS011;15334;49.494;8.410;2023-03-22T04:21:48;11.50;;;5.60;;
28009;SDS011;15334;49.494;8.410;2023-03-22T04:24:18;7.93;;;4.47;;
28009;SDS011;15334;49.494;8.410;2023-03-22T04:26:47;9.15;;;4.97;;
28009;SDS011;15334;49.494;8.410;2023-03-22T04:29:15;9.23;;;5.45;;
28009;SDS011;15334;49.494;8.410;2023-03-22T04:31:45;8.77;;;5.22;;
28009;SDS011;15334;49.494;8.410;2023-03-22T04:34:14;11.20;;;5.63;;
28009;SDS011;15334;49.494;8.410;2023-03-22T04:36:42;9.93;;;5.78;;
28009;SDS011;15334;49.494;8.410;2023-03-22T04:39:10;12.18;;;6.38;;
28009;SDS011;15334;49.494;8.410;2023-03-22T04:41:38;9.95;;;5.78;;
28009;SDS011;15334;49.494;8.410;2023-03-22T04:44:06;9.25;;;5.30;;
28009;SDS011;15334;49.494;8.410;2023-03-22T04:46:35;9.45;;;5.53;;
28009;SDS011;15334;49.494;8.410;2023-03-22T04:49:13;11.13;;;6.32;;
28009;SDS011;15334;49.494;8.410;2023-03-22T04:51:42;12.80;;;6.00;;
28009;SDS011;15334;49.494;8.410;2023-03-22T04:54:10;13.57;;;6.63;;
28009;SDS011;15334;49.494;8.410;2023-03-22T04:56:38;10.88;;;5.90;;
28009;SDS011;15334;49.494;8.410;2023-03-22T04:59:06;16.60;;;7.45;;
28009;SDS011;15334;49.494;8.410;2023-03-22T05:01:36;12.27;;;7.28;;
28009;SDS011;15334;49.494;8.410;2023-03-22T05:04:05;13.25;;;6.30;;
28009;SDS011;15334;49.494;8.410;2023-03-22T05:06:35;12.50;;;7.10;;
28009;SDS011;15334;49.494;8.410;2023-03-22T05:09:03;12.25;;;6.20;;
28009;SDS011;15334;49.494;8.410;2023-03-22T05:11:34;14.85;;;8.10;;
28009;SDS011;15334;49.494;8.410;2023-03-22T05:14:02;13.68;;;7.50;;
28009;SDS011;15334;49.494;8.410;2023-03-22T05:16:30;12.05;;;7.00;;
28009;SDS011;15334;49.494;8.410;2023-03-22T05:19:08;12.32;;;7.05;;
28009;SDS011;15334;49.494;8.410;2023-03-22T05:28:53;14.70;;;7.07;;
28009;SDS011;15334;49.494;8.410;2023-03-22T05:39:22;10.98;;;5.68;;
28009;SDS011;15334;49.494;8.410;2023-03-22T05:42:46;13.82;;;6.20;;
28009;SDS011;15334;49.494;8.410;2023-03-22T05:45:34;12.77;;;6.20;;
28009;SDS011;15334;49.494;8.410;2023-03-22T05:48:18;12.13;;;5.15;;
28009;SDS011;15334;49.494;8.410;2023-03-22T05:55:23;13.00;;;5.15;;
28009;SDS011;15334;49.494;8.410;2023-03-22T05:59:03;15.13;;;5.72;;
28009;SDS011;15334;49.494;8.410;2023-03-22T06:02:14;11.23;;;5.85;;
28009;SDS011;15334;49.494;8.410;2023-03-22T06:06:17;10.57;;;5.28;;
28009;SDS011;15334;49.494;8.410;2023-03-22T06:08:45;10.63;;;5.20;;
28009;SDS011;15334;49.494;8.410;2023-03-22T06:11:14;11.23;;;5.47;;
28009;SDS011;15334;49.494;8.410;2023-03-22T06:13:43;11.85;;;6.00;;
28009;SDS011;15334;49.494;8.410;2023-03-22T06:16:12;13.85;;;6.30;;
28009;SDS011;15334;49.494;8.410;2023-03-22T06:18:40;8.95;;;5.78;;
28009;SDS011;15334;49.494;8.410;2023-03-22T06:21:10;12.07;;;5.47;;
28009;SDS011;15334;49.494;8.410;2023-03-22T06:23:38;10.40;;;6.05;;
28009;SDS011;15334;49.494;8.410;2023-03-22T06:26:06;10.68;;;5.60;;
28009;SDS011;15334;49.494;8.410;2023-03-22T06:28:38;12.18;;;5.28;;
28009;SDS011;15334;49.494;8.410;2023-03-22T06:31:06;10.13;;;5.22;;
28009;SDS011;15334;49.494;8.410;2023-03-22T06:33:35;9.95;;;5.40;;
28009;SDS011;15334;49.494;8.410;2023-03-22T06:36:45;9.75;;;5.05;;
28009;SDS011;15334;49.494;8.410;2023-03-22T06:39:06;12.60;;;5.10;;
28009;SDS011;15334;49.494;8.410;2023-03-22T06:41:43;8.30;;;4.72;;
28009;SDS011;15334;49.494;8.410;2023-03-22T06:44:13;8.65;;;5.00;;
28009;SDS011;15334;49.494;8.410;2023-03-22T06:46:42;11.70;;;5.80;;
28009;SDS011;15334;49.494;8.410;2023-03-22T06:49:10;7.85;;;4.65;;
28009;SDS011;15334;49.494;8.410;2023-03-22T06:51:38;10.60;;;5.45;;
28009;SDS011;15334;49.494;8.410;2023-03-22T06:54:06;9.20;;;5.10;;
28009;SDS011;15334;49.494;8.410;2023-03-22T06:56:34;9.02;;;4.55;;
28009;SDS011;15334;49.494;8.410;2023-03-22T06:59:02;9.50;;;4.00;;
28009;SDS011;15334;49.494;8.410;2023-03-22T07:01:31;16.02;;;5.80;;
28009;SDS011;15334;49.494;8.410;2023-03-22T07:04:01;15.70;;;7.30;;
28009;SDS011;15334;49.494;8.410;2023-03-22T07:06:30;15.23;;;8.10;;
28009;SDS011;15334;49.494;8.410;2023-03-22T07:09:00;10.40;;;4.40;;
28009;SDS011;15334;49.494;8.410;2023-03-22T07:11:28;8.77;;;4.07;;
28009;SDS011;15334;49.494;8.410;2023-03-22T07:13:56;7.57;;;3.60;;
28009;SDS011;15334;49.494;8.410;2023-03-22T07:16:24;8.10;;;4.05;;
28009;SDS011;15334;49.494;8.410;2023-03-22T07:18:53;6.57;;;4.03;;
28009;SDS011;15334;49.494;8.410;2023-03-22T07:21:22;8.02;;;4.05;;
28009;SDS011;15334;49.494;8.410;2023-03-22T07:23:50;9.98;;;3.58;;
28009;SDS011;15334;49.494;8.410;2023-03-22T07:26:18;6.13;;;3.05;;
28009;SDS011;15334;49.494;8.410;2023-03-22T07:28:46;8.40;;;3.30;;
28009;SDS011;15334;49.494;8.410;2023-03-22T07:31:15;5.65;;;3.15;;
28009;SDS011;15334;49.494;8.410;2023-03-22T07:33:46;6.25;;;2.90;;
28009;SDS011;15334;49.494;8.410;2023-03-22T07:36:18;6.70;;;3.42;;
28009;SDS011;15334;49.494;8.410;2023-03-22T07:38:50;7.05;;;3.05;;
28009;SDS011;15334;49.494;8.410;2023-03-22T07:41:18;6.75;;;3.33;;
28009;SDS011;15334;49.494;8.410;2023-03-22T07:43:49;7.13;;;2.67;;
28009;SDS011;15334;49.494;8.410;2023-03-22T07:46:27;7.45;;;3.17;;
28009;SDS011;15334;49.494;8.410;2023-03-22T07:48:55;9.80;;;3.20;;
28009;SDS011;15334;49.494;8.410;2023-03-22T07:51:25;3.63;;;2.22;;
28009;SDS011;15334;49.494;8.410;2023-03-22T07:53:53;5.90;;;2.85;;
28009;SDS011;15334;49.494;8.410;2023-03-22T07:56:22;6.72;;;2.65;;
28009;SDS011;15334;49.494;8.410;2023-03-22T07:58:50;5.80;;;2.35;;
28009;SDS011;15334;49.494;8.410;2023-03-22T08:01:18;5.68;;;2.38;;
28009;SDS011;15334;49.494;8.410;2023-03-22T08:03:48;9.13;;;2.50;;
28009;SDS011;15334;49.494;8.410;2023-03-22T08:06:16;6.45;;;2.70;;
28009;SDS011;15334;49.494;8.410;2023-03-22T08:08:48;5.65;;;2.53;;
28009;SDS011;15334;49.494;8.410;2023-03-22T08:11:16;5.40;;;2.50;;
28009;SDS011;15334;49.494;8.410;2023-03-22T08:13:46;4.53;;;2.30;;
28009;SDS011;15334;49.494;8.410;2023-03-22T08:16:14;5.72;;;2.20;;
28009;SDS011;15334;49.494;8.410;2023-03-22T08:18:42;5.07;;;2.67;;
28009;SDS011;15334;49.494;8.410;2023-03-22T08:21:10;7.28;;;2.17;;
28009;SDS011;15334;49.494;8.410;2023-03-22T08:23:38;5.68;;;2.22;;
28009;SDS011;15334;49.494;8.410;2023-03-22T08:26:09;5.85;;;2.75;;
28009;SDS011;15334;49.494;8.410;2023-03-22T08:28:37;7.60;;;2.60;;
28009;SDS011;15334;49.494;8.410;2023-03-22T08:31:09;4.72;;;2.33;;
28009;SDS011;15334;49.494;8.410;2023-03-22T08:33:40;5.65;;;2.70;;
28009;SDS011;15334;49.494;8.410;2023-03-22T08:36:20;5.43;;;2.40;;
28009;SDS011;15334;49.494;8.410;2023-03-22T08:38:49;6.88;;;2.70;;
28009;SDS011;15334;49.494;8.410;2023-03-22T08:41:19;3.85;;;1.65;;
28009;SDS011;15334;49.494;8.410;2023-03-22T08:43:48;2.05;;;1.25;;
28009;SDS011;15334;49.494;8.410;2023-03-22T08:46:16;5.68;;;1.40;;
28009;SDS011;15334;49.494;8.410;2023-03-22T08:48:44;2.30;;;1.20;;
28009;SDS011;15334;49.494;8.410;2023-03-22T08:51:16;2.25;;;1.20;;
28009;SDS011;15334;49.494;8.410;2023-03-22T08:53:44;3.70;;;1.20;;
28009;SDS011;15334;49.494;8.410;2023-03-22T08:56:12;4.07;;;1.38;;
28009;SDS011;15334;49.494;8.410;2023-03-22T08:58:44;3.50;;;1.42;;
28009;SDS011;15334;49.494;8.410;2023-03-22T09:01:12;4.70;;;1.73;;
28009;SDS011;15334;49.494;8.410;2023-03-22T09:03:42;2.25;;;0.93;;
28009;SDS011;15334;49.494;8.410;2023-03-22T09:06:13;3.22;;;1.10;;
28009;SDS011;15334;49.494;8.410;2023-03-22T09:09:21;4.40;;;1.30;;
28009;SDS011;15334;49.494;8.410;2023-03-22T09:11:49;3.67;;;1.20;;
28009;SDS011;15334;49.494;8.410;2023-03-22T09:14:20;2.85;;;1.30;;
28009;SDS011;15334;49.494;8.410;2023-03-22T09:16:48;2.83;;;1.00;;
28009;SDS011;15334;49.494;8.410;2023-03-22T09:19:17;1.60;;;1.05;;
28009;SDS011;15334;49.494;8.410;2023-03-22T09:21:48;2.72;;;1.30;;
28009;SDS011;15334;49.494;8.410;2023-03-22T09:24:19;2.70;;;1.38;;
28009;SDS011;15334;49.494;8.410;2023-03-22T09:26:47;3.67;;;1.35;;
28009;SDS011;15334;49.494;8.410;2023-03-22T09:29:16;2.15;;;1.13;;
28009;SDS011;15334;49.494;8.410;2023-03-22T09:31:47;2.35;;;1.13;;
28009;SDS011;15334;49.494;8.410;2023-03-22T09:34:15;3.88;;;1.38;;
28009;SDS011;15334;49.494;8.410;2023-03-22T09:36:43;3.15;;;1.25;;
28009;SDS011;15334;49.494;8.410;2023-03-22T09:39:12;4.10;;;1.38;;
28009;SDS011;15334;49.494;8.410;2023-03-22T09:41:43;2.83;;;1.20;;
28009;SDS011;15334;49.494;8.410;2023-03-22T09:44:14;2.80;;;1.23;;
28009;SDS011;15334;49.494;8.410;2023-03-22T09:48:17;2.75;;;1.10;;
28009;SDS011;15334;49.494;8.410;2023-03-22T09:50:49;2.40;;;1.10;;
28009;SDS011;15334;49.494;8.410;2023-03-22T09:53:20;5.35;;;1.15;;
28009;SDS011;15334;49.494;8.410;2023-03-22T09:55:51;3.17;;;1.25;;
28009;SDS011;15334;49.494;8.410;2023-03-22T09:58:25;4.53;;;1.30;;
28009;SDS011;15334;49.494;8.410;2023-03-22T10:00:59;3.88;;;1.30;;
28009;SDS011;15334;49.494;8.410;2023-03-22T10:03:50;3.05;;;1.27;;
28009;SDS011;15334;49.494;8.410;2023-03-22T10:06:28;3.60;;;1.30;;
28009;SDS011;15334;49.494;8.410;2023-03-22T10:08:58;4.50;;;1.52;;
28009;SDS011;15334;49.494;8.410;2023-03-22T10:11:45;1.90;;;1.10;;
28009;SDS011;15334;49.494;8.410;2023-03-22T10:16:53;4.28;;;0.90;;
28009;SDS011;15334;49.494;8.410;2023-03-22T10:19:26;1.85;;;0.90;;
28009;SDS011;15334;49.494;8.410;2023-03-22T10:22:01;2.50;;;1.38;;
28009;SDS011;15334;49.494;8.410;2023-03-22T10:24:32;4.18;;;1.30;;
28009;SDS011;15334;49.494;8.410;2023-03-22T10:27:10;2.33;;;1.20;;
28009;SDS011;15334;49.494;8.410;2023-03-22T10:29:44;2.15;;;1.00;;
28009;SDS011;15334;49.494;8.410;2023-03-22T10:32:15;2.47;;;1.00;;
28009;SDS011;15334;49.494;8.410;2023-03-22T10:34:46;1.83;;;1.00;;
28009;SDS011;15334;49.494;8.410;2023-03-22T10:37:15;3.33;;;1.10;;
28009;SDS011;15334;49.494;8.410;2023-03-22T10:39:46;4.50;;;1.20;;
28009;SDS011;15334;49.494;8.410;2023-03-22T10:42:19;2.70;;;1.23;;
28009;SDS011;15334;49.494;8.410;2023-03-22T10:44:51;2.10;;;1.08;;
28009;SDS011;15334;49.494;8.410;2023-03-22T10:47:23;1.97;;;1.20;;
28009;SDS011;15334;49.494;8.410;2023-03-22T10:49:57;4.45;;;1.33;;
28009;SDS011;15334;49.494;8.410;2023-03-22T10:52:33;2.35;;;1.08;;
28009;SDS011;15334;49.494;8.410;2023-03-22T10:55:08;2.80;;;1.00;;
28009;SDS011;15334;49.494;8.410;2023-03-22T10:57:37;6.82;;;1.42;;
28009;SDS011;15334;49.494;8.410;2023-03-22T11:00:08;1.88;;;1.20;;
28009;SDS011;15334;49.494;8.410;2023-03-22T11:02:45;3.42;;;1.30;;
28009;SDS011;15334;49.494;8.410;2023-03-22T11:05:22;2.50;;;1.20;;
28009;SDS011;15334;49.494;8.410;2023-03-22T11:07:52;3.63;;;1.30;;
28009;SDS011;15334;49.494;8.410;2023-03-22T11:10:22;1.92;;;1.10;;
28009;SDS011;15334;49.494;8.410;2023-03-22T11:12:58;2.55;;;1.00;;
28009;SDS011;15334;49.494;8.410;2023-03-22T11:15:39;2.30;;;1.52;;
28009;SDS011;15334;49.494;8.410;2023-03-22T11:18:15;2.22;;;1.20;;
28009;SDS011;15334;49.494;8.410;2023-03-22T11:20:54;2.72;;;1.00;;
28009;SDS011;15334;49.494;8.410;2023-03-22T11:23:24;5.97;;;1.58;;
28009;SDS011;15334;49.494;8.410;2023-03-22T11:25:55;1.52;;;0.90;;
28009;SDS011;15334;49.494;8.410;2023-03-22T11:28:26;1.42;;;0.75;;
28009;SDS011;15334;49.494;8.410;2023-03-22T11:31:01;1.52;;;0.60;;
28009;SDS011;15334;49.494;8.410;2023-03-22T11:33:31;1.95;;;0.80;;
28009;SDS011;15334;49.494;8.410;2023-03-22T11:36:02;5.00;;;0.70;;
28009;SDS011;15334;49.494;8.410;2023-03-22T11:38:34;1.07;;;0.83;;
28009;SDS011;15334;49.494;8.410;2023-03-22T11:41:04;1.25;;;0.68;;
28009;SDS011;15334;49.494;8.410;2023-03-22T11:43:35;2.88;;;0.98;;
28009;SDS011;15334;49.494;8.410;2023-03-22T11:46:06;1.08;;;0.88;;
28009;SDS011;15334;49.494;8.410;2023-03-22T11:48:34;1.05;;;0.65;;
28009;SDS011;15334;49.494;8.410;2023-03-22T11:51:07;1.23;;;0.80;;
28009;SDS011;15334;49.494;8.410;2023-03-22T11:53:37;3.47;;;1.20;;
28009;SDS011;15334;49.494;8.410;2023-03-22T11:56:10;0.90;;;0.68;;
28009;SDS011;15334;49.494;8.410;2023-03-22T11:58:43;1.65;;;0.70;;
28009;SDS011;15334;49.494;8.410;2023-03-22T12:01:17;1.70;;;0.90;;
28009;SDS011;15334;49.494;8.410;2023-03-22T12:03:55;3.22;;;0.95;;
28009;SDS011;15334;49.494;8.410;2023-03-22T12:08:55;2.72;;;0.90;;
28009;SDS011;15334;49.494;8.410;2023-03-22T12:11:30;2.47;;;0.90;;
28009;SDS011;15334;49.494;8.410;2023-03-22T12:14:03;4.25;;;1.05;;
28009;SDS011;15334;49.494;8.410;2023-03-22T12:16:39;2.50;;;0.80;;
28009;SDS011;15334;49.494;8.410;2023-03-22T12:19:16;3.10;;;0.80;;
28009;SDS011;15334;49.494;8.410;2023-03-22T12:22:07;2.78;;;1.10;;
28009;SDS011;15334;49.494;8.410;2023-03-22T12:24:39;2.22;;;1.10;;
28009;SDS011;15334;49.494;8.410;2023-03-22T12:27:11;1.33;;;0.73;;
28009;SDS011;15334;49.494;8.410;2023-03-22T12:29:45;3.08;;;0.95;;
28009;SDS011;15334;49.494;8.410;2023-03-22T12:32:18;3.17;;;0.85;;
28009;SDS011;15334;49.494;8.410;2023-03-22T12:34:51;1.30;;;0.68;;
28009;SDS011;15334;49.494;8.410;2023-03-22T12:37:32;1.10;;;0.60;;
28009;SDS011;15334;49.494;8.410;2023-03-22T12:40:02;2.70;;;0.80;;
28009;SDS011;15334;49.494;8.410;2023-03-22T12:42:35;1.60;;;0.90;;
28009;SDS011;15334;49.494;8.410;2023-03-22T12:45:19;1.95;;;0.57;;
28009;SDS011;15334;49.494;8.410;2023-03-22T12:47:51;2.38;;;0.88;;
28009;SDS011;15334;49.494;8.410;2023-03-22T12:50:24;1.13;;;0.80;;
28009;SDS011;15334;49.494;8.410;2023-03-22T12:53:00;1.10;;;0.70;;
28009;SDS011;15334;49.494;8.410;2023-03-22T12:55:30;1.15;;;0.68;;
28009;SDS011;15334;49.494;8.410;2023-03-22T12:58:00;2.67;;;1.10;;
28009;SDS011;15334;49.494;8.410;2023-03-22T13:00:33;2.58;;;1.00;;
28009;SDS011;15334;49.494;8.410;2023-03-22T13:03:06;1.05;;;0.77;;
28009;SDS011;15334;49.494;8.410;2023-03-22T13:05:46;1.27;;;0.68;;
28009;SDS011;15334;49.494;8.410;2023-03-22T13:08:19;1.55;;;0.85;;
28009;SDS011;15334;49.494;8.410;2023-03-22T13:10:50;3.05;;;0.88;;
28009;SDS011;15334;49.494;8.410;2023-03-22T13:13:32;1.95;;;1.13;;
28009;SDS011;15334;49.494;8.410;2023-03-22T13:16:18;1.63;;;0.90;;
28009;SDS011;15334;49.494;8.410;2023-03-22T13:18:57;0.85;;;0.55;;
28009;SDS011;15334;49.494;8.410;2023-03-22T13:21:31;1.50;;;0.90;;
28009;SDS011;15334;49.494;8.410;2023-03-22T13:24:21;1.38;;;0.77;;
28009;SDS011;15334;49.494;8.410;2023-03-22T13:26:49;1.52;;;0.80;;
28009;SDS011;15334;49.494;8.410;2023-03-22T13:29:22;1.50;;;0.80;;
28009;SDS011;15334;49.494;8.410;2023-03-22T13:31:55;3.78;;;0.90;;
28009;SDS011;15334;49.494;8.410;2023-03-22T13:35:52;1.27;;;0.80;;
28009;SDS011;15334;49.494;8.410;2023-03-22T13:40:21;2.53;;;0.90;;
28009;SDS011;15334;49.494;8.410;2023-03-22T13:43:44;2.33;;;0.90;;
28009;SDS011;15334;49.494;8.410;2023-03-22T13:47:27;1.67;;;0.80;;
28009;SDS011;15334;49.494;8.410;2023-03-22T13:53:54;1.77;;;0.70;;
28009;SDS011;15334;49.494;8.410;2023-03-22T13:57:03;3.50;;;0.80;;
28009;SDS011;15334;49.494;8.410;2023-03-22T14:01:11;3.92;;;0.80;;
28009;SDS011;15334;49.494;8.410;2023-03-22T14:05:03;2.40;;;1.88;;
28009;SDS011;15334;49.494;8.410;2023-03-22T14:13:04;0.63;;;0.60;;
28009;SDS011;15334;49.494;8.410;2023-03-22T14:16:51;1.25;;;0.70;;
28009;SDS011;15334;49.494;8.410;2023-03-22T14:19:42;1.65;;;0.55;;
28009;SDS011;15334;49.494;8.410;2023-03-22T14:37:19;1.17;;;0.80;;
28009;SDS011;15334;49.494;8.410;2023-03-22T14:39:50;2.35;;;1.20;;
28009;SDS011;15334;49.494;8.410;2023-03-22T14:42:23;1.45;;;0.80;;
28009;SDS011;15334;49.494;8.410;2023-03-22T14:44:53;1.50;;;0.70;;
28009;SDS011;15334;49.494;8.410;2023-03-22T14:47:27;1.65;;;1.00;;
28009;SDS011;15334;49.494;8.410;2023-03-22T14:49:58;2.00;;;0.90;;
28009;SDS011;15334;49.494;8.410;2023-03-22T14:52:32;3.22;;;0.90;;
28009;SDS011;15334;49.494;8.410;2023-03-22T14:55:02;1.17;;;0.73;;
28009;SDS011;15334;49.494;8.410;2023-03-22T14:57:34;1.05;;;0.77;;
28009;SDS011;15334;49.494;8.410;2023-03-22T15:00:04;0.70;;;0.60;;
28009;SDS011;15334;49.494;8.410;2023-03-22T15:02:47;2.30;;;1.15;;
28009;SDS011;15334;49.494;8.410;2023-03-22T15:05:20;2.92;;;1.45;;
28009;SDS011;15334;49.494;8.410;2023-03-22T15:07:50;1.27;;;0.93;;
28009;SDS011;15334;49.494;8.410;2023-03-22T15:10:19;2.92;;;1.40;;
28009;SDS011;15334;49.494;8.410;2023-03-22T15:12:52;2.15;;;1.10;;
28009;SDS011;15334;49.494;8.410;2023-03-22T15:15:25;3.03;;;0.90;;
28009;SDS011;15334;49.494;8.410;2023-03-22T15:18:09;1.73;;;0.70;;
28009;SDS011;15334;49.494;8.410;2023-03-22T15:20:43;1.38;;;0.88;;
28009;SDS011;15334;49.494;8.410;2023-03-22T15:23:35;2.28;;;0.93;;
28009;SDS011;15334;49.494;8.410;2023-03-22T15:26:04;2.50;;;1.08;;
28009;SDS011;15334;49.494;8.410;2023-03-22T15:28:41;1.90;;;0.82;;
28009;SDS011;15334;49.494;8.410;2023-03-22T15:31:19;4.72;;;0.90;;
28009;SDS011;15334;49.494;8.410;2023-03-22T15:37:18;2.88;;;0.80;;
28009;SDS011;15334;49.494;8.410;2023-03-22T15:48:58;1.25;;;0.93;;
28009;SDS011;15334;49.494;8.410;2023-03-22T15:52:21;2.85;;;0.93;;
28009;SDS011;15334;49.494;8.410;2023-03-22T16:03:37;2.50;;;1.00;;
28009;SDS011;15334;49.494;8.410;2023-03-22T16:23:02;1.50;;;0.77;;
28009;SDS011;15334;49.494;8.410;2023-03-22T16:26:29;3.92;;;1.30;;
28009;SDS011;15334;49.494;8.410;2023-03-22T16:34:29;1.13;;;0.70;;
28009;SDS011;15334;49.494;8.410;2023-03-22T16:46:46;4.78;;;0.90;;
28009;SDS011;15334;49.494;8.410;2023-03-22T16:54:29;2.63;;;1.05;;
28009;SDS011;15334;49.494;8.410;2023-03-22T17:11:23;4.82;;;1.95;;
28009;SDS011;15334;49.494;8.410;2023-03-22T17:23:37;6.13;;;2.08;;
28009;SDS011;15334;49.494;8.410;2023-03-22T17:29:18;3.03;;;1.88;;
28009;SDS011;15334;49.494;8.410;2023-03-22T17:32:53;3.80;;;1.50;;
28009;SDS011;15334;49.494;8.410;2023-03-22T17:35:41;3.88;;;1.77;;
28009;SDS011;15334;49.494;8.410;2023-03-22T17:38:08;5.70;;;2.83;;
28009;SDS011;15334;49.494;8.410;2023-03-22T17:40:36;6.55;;;2.10;;
28009;SDS011;15334;49.494;8.410;2023-03-22T17:43:04;6.45;;;2.60;;
28009;SDS011;15334;49.494;8.410;2023-03-22T17:45:31;13.43;;;6.93;;
28009;SDS011;15334;49.494;8.410;2023-03-22T17:48:02;9.40;;;3.53;;
28009;SDS011;15334;49.494;8.410;2023-03-22T17:50:33;4.32;;;2.33;;
28009;SDS011;15334;49.494;8.410;2023-03-22T17:53:01;8.80;;;3.92;;
28009;SDS011;15334;49.494;8.410;2023-03-22T17:55:30;4.78;;;2.20;;
28009;SDS011;15334;49.494;8.410;2023-03-22T17:57:58;7.85;;;2.55;;
28009;SDS011;15334;49.494;8.410;2023-03-22T18:00:27;8.20;;;3.10;;
28009;SDS011;15334;49.494;8.410;2023-03-22T18:02:57;4.63;;;2.38;;
28009;SDS011;15334;49.494;8.410;2023-03-22T18:05:27;4.22;;;2.17;;
28009;SDS011;15334;49.494;8.410;2023-03-22T18:07:54;4.97;;;2.00;;
28009;SDS011;15334;49.494;8.410;2023-03-22T18:10:25;5.72;;;2.05;;
28009;SDS011;15334;49.494;8.410;2023-03-22T18:12:53;4.55;;;1.73;;
28009;SDS011;15334;49.494;8.410;2023-03-22T18:15:21;4.68;;;2.03;;